sensor_id;sensor_type;location;lat;lon;timestamp;pressure;altitude;pressure_sealevel;temperature;humidity
63691;BME280;49837;57.280;27.070;2023-03-20T00:00:54;100197.55;;;2.09;86.19
63691;BME280;49837;57.280;27.070;2023-03-20T00:01:55;100197.48;;;2.1;85.98
63691;BME280;49837;57.280;27.070;2023-03-20T00:02:55;100194.8;;;2.18;85.85
63691;BME280;49837;57.280;27.070;2023-03-20T00:03:56;100193.27;;;2.25;85.51
63691;BME280;49837;57.280;27.070;2023-03-20T00:04:57;100195.56;;;2.26;85.99
63691;BME280;49837;57.280;27.070;2023-03-20T00:05:56;100190.47;;;2.23;86.03
63691;BME280;49837;57.280;27.070;2023-03-20T00:06:56;100191.95;;;2.2;86.06
63691;BME280;49837;57.280;27.070;2023-03-20T00:07:57;100189.12;;;2.15;86.29
63691;BME280;49837;57.280;27.070;2023-03-20T00:08:57;100184.62;;;2.07;86.57
63691;BME280;49837;57.280;27.070;2023-03-20T00:09:57;100181.98;;;2.05;86.91
63691;BME280;49837;57.280;27.070;2023-03-20T00:10:58;100183.44;;;2.03;86.88
63691;BME280;49837;57.280;27.070;2023-03-20T00:11:58;100190.2;;;2.03;86.75
63691;BME280;49837;57.280;27.070;2023-03-20T00:12:59;100185.89;;;1.99;86.54
63691;BME280;49837;57.280;27.070;2023-03-20T00:14:02;100185.1;;;2.05;85.84
63691;BME280;49837;57.280;27.070;2023-03-20T00:15:02;100177.79;;;2.06;86.45
63691;BME280;49837;57.280;27.070;2023-03-20T00:16:02;100177.53;;;2.02;86.84
63691;BME280;49837;57.280;27.070;2023-03-20T00:17:09;100170.58;;;1.95;87.22
63691;BME280;49837;57.280;27.070;2023-03-20T00:20:13;100171.86;;;2.04;87.11
63691;BME280;49837;57.280;27.070;2023-03-20T00:21:17;100169.05;;;2.02;86.96
63691;BME280;49837;57.280;27.070;2023-03-20T00:22:15;100169.73;;;1.92;87.39
63691;BME280;49837;57.280;27.070;2023-03-20T00:23:16;100169.39;;;1.76;88.05
63691;BME280;49837;57.280;27.070;2023-03-20T00:24:19;100170.98;;;1.81;88.18
63691;BME280;49837;57.280;27.070;2023-03-20T00:25:22;100170.12;;;1.9;88.22
63691;BME280;49837;57.280;27.070;2023-03-20T00:26:27;100165.64;;;1.95;88.32
63691;BME280;49837;57.280;27.070;2023-03-20T00:27:22;100166.41;;;1.98;88.55
63691;BME280;49837;57.280;27.070;2023-03-20T00:28:34;100165.59;;;2.0;88.58
63691;BME280;49837;57.280;27.070;2023-03-20T00:29:27;100167.08;;;1.99;88.51
63691;BME280;49837;57.280;27.070;2023-03-20T00:30:28;100162.1;;;1.96;88.62
63691;BME280;49837;57.280;27.070;2023-03-20T00:31:34;100171.53;;;2.03;87.67
63691;BME280;49837;57.280;27.070;2023-03-20T00:32:27;100167.92;;;2.05;87.7
63691;BME280;49837;57.280;27.070;2023-03-20T00:33:28;100167.69;;;2.08;87.59
63691;BME280;49837;57.280;27.070;2023-03-20T00:34:28;100169.23;;;2.07;87.84
63691;BME280;49837;57.280;27.070;2023-03-20T00:35:29;100166.13;;;2.08;87.9
63691;BME280;49837;57.280;27.070;2023-03-20T00:36:29;100164.64;;;2.06;88.24
63691;BME280;49837;57.280;27.070;2023-03-20T00:37:29;100162.02;;;2.08;87.73
63691;BME280;49837;57.280;27.070;2023-03-20T00:38:29;100162.98;;;2.07;87.82
63691;BME280;49837;57.280;27.070;2023-03-20T00:39:30;100165.2;;;2.06;87.96
63691;BME280;49837;57.280;27.070;2023-03-20T00:40:30;100160.91;;;2.05;88.1
63691;BME280;49837;57.280;27.070;2023-03-20T00:41:39;100162.55;;;2.01;88.32
63691;BME280;49837;57.280;27.070;2023-03-20T00:42:33;100161.21;;;2.0;88.46
63691;BME280;49837;57.280;27.070;2023-03-20T00:43:33;100159.0;;;2.01;88.56
63691;BME280;49837;57.280;27.070;2023-03-20T00:44:35;100159.56;;;2.0;88.32
63691;BME280;49837;57.280;27.070;2023-03-20T00:45:38;100159.99;;;2.01;88.15
63691;BME280;49837;57.280;27.070;2023-03-20T00:46:38;100159.03;;;2.05;88.17
63691;BME280;49837;57.280;27.070;2023-03-20T00:47:39;100157.11;;;2.0;88.29
63691;BME280;49837;57.280;27.070;2023-03-20T00:48:40;100159.58;;;1.99;88.2
63691;BME280;49837;57.280;27.070;2023-03-20T00:49:39;100154.05;;;1.97;88.96
63691;BME280;49837;57.280;27.070;2023-03-20T00:50:40;100153.53;;;1.9;89.3
63691;BME280;49837;57.280;27.070;2023-03-20T00:51:40;100154.23;;;1.84;89.33
63691;BME280;49837;57.280;27.070;2023-03-20T00:52:40;100157.17;;;1.8;89.17
63691;BME280;49837;57.280;27.070;2023-03-20T00:53:41;100147.33;;;1.84;89.35
63691;BME280;49837;57.280;27.070;2023-03-20T00:54:41;100151.61;;;1.85;89.71
63691;BME280;49837;57.280;27.070;2023-03-20T00:55:41;100149.65;;;1.87;89.97
63691;BME280;49837;57.280;27.070;2023-03-20T00:56:53;100145.84;;;1.85;89.96
63691;BME280;49837;57.280;27.070;2023-03-20T00:57:58;100144.48;;;1.75;89.89
63691;BME280;49837;57.280;27.070;2023-03-20T00:58:47;100145.8;;;1.77;89.39
63691;BME280;49837;57.280;27.070;2023-03-20T00:59:57;100143.0;;;1.78;89.52
63691;BME280;49837;57.280;27.070;2023-03-20T01:00:51;100138.81;;;1.78;89.88
63691;BME280;49837;57.280;27.070;2023-03-20T01:01:51;100138.91;;;1.78;90.11
63691;BME280;49837;57.280;27.070;2023-03-20T01:02:52;100140.14;;;1.77;90.05
63691;BME280;49837;57.280;27.070;2023-03-20T01:03:51;100147.54;;;1.76;89.94
63691;BME280;49837;57.280;27.070;2023-03-20T01:04:52;100146.78;;;1.73;90.21
63691;BME280;49837;57.280;27.070;2023-03-20T01:05:52;100142.09;;;1.76;90.11
63691;BME280;49837;57.280;27.070;2023-03-20T01:06:53;100146.96;;;1.75;90.01
63691;BME280;49837;57.280;27.070;2023-03-20T01:07:54;100144.15;;;1.72;90.13
63691;BME280;49837;57.280;27.070;2023-03-20T01:08:53;100144.53;;;1.7;90.21
63691;BME280;49837;57.280;27.070;2023-03-20T01:09:53;100143.74;;;1.63;90.54
63691;BME280;49837;57.280;27.070;2023-03-20T01:10:55;100141.87;;;1.64;90.24
63691;BME280;49837;57.280;27.070;2023-03-20T01:11:54;100140.48;;;1.67;91.0
63691;BME280;49837;57.280;27.070;2023-03-20T01:12:57;100138.89;;;1.59;91.53
63691;BME280;49837;57.280;27.070;2023-03-20T01:13:56;100138.66;;;1.52;91.55
63691;BME280;49837;57.280;27.070;2023-03-20T01:14:58;100134.05;;;1.5;91.81
63691;BME280;49837;57.280;27.070;2023-03-20T01:15:57;100140.05;;;1.48;92.01
63691;BME280;49837;57.280;27.070;2023-03-20T01:16:57;100135.97;;;1.44;92.21
63691;BME280;49837;57.280;27.070;2023-03-20T01:17:57;100138.61;;;1.43;92.45
63691;BME280;49837;57.280;27.070;2023-03-20T01:18:58;100138.49;;;1.4;92.49
63691;BME280;49837;57.280;27.070;2023-03-20T01:19:58;100134.61;;;1.34;92.42
63691;BME280;49837;57.280;27.070;2023-03-20T01:20:58;100140.59;;;1.34;92.4
63691;BME280;49837;57.280;27.070;2023-03-20T01:21:59;100138.62;;;1.36;92.44
63691;BME280;49837;57.280;27.070;2023-03-20T01:22:59;100138.62;;;1.34;92.52
63691;BME280;49837;57.280;27.070;2023-03-20T01:23:59;100139.28;;;1.36;92.59
63691;BME280;49837;57.280;27.070;2023-03-20T01:25:00;100136.26;;;1.35;92.51
63691;BME280;49837;57.280;27.070;2023-03-20T01:26:00;100142.91;;;1.37;91.92
63691;BME280;49837;57.280;27.070;2023-03-20T01:27:00;100141.76;;;1.37;91.86
63691;BME280;49837;57.280;27.070;2023-03-20T01:28:02;100140.75;;;1.34;91.54
63691;BME280;49837;57.280;27.070;2023-03-20T01:29:02;100143.48;;;1.35;90.69
63691;BME280;49837;57.280;27.070;2023-03-20T01:30:02;100138.17;;;1.39;91.09
63691;BME280;49837;57.280;27.070;2023-03-20T01:31:02;100136.76;;;1.37;91.53
63691;BME280;49837;57.280;27.070;2023-03-20T01:32:03;100136.92;;;1.37;91.05
63691;BME280;49837;57.280;27.070;2023-03-20T01:33:11;100135.92;;;1.36;91.63
63691;BME280;49837;57.280;27.070;2023-03-20T01:34:05;100139.75;;;1.3;91.92
63691;BME280;49837;57.280;27.070;2023-03-20T01:35:06;100141.03;;;1.26;92.13
63691;BME280;49837;57.280;27.070;2023-03-20T01:36:11;100139.36;;;1.21;92.33
63691;BME280;49837;57.280;27.070;2023-03-20T01:39:15;100134.05;;;1.16;92.46
63691;BME280;49837;57.280;27.070;2023-03-20T01:41:17;100134.54;;;1.16;92.42
63691;BME280;49837;57.280;27.070;2023-03-20T01:42:17;100131.33;;;1.15;92.52
63691;BME280;49837;57.280;27.070;2023-03-20T01:43:20;100136.12;;;1.16;92.85
63691;BME280;49837;57.280;27.070;2023-03-20T01:44:20;100133.23;;;1.15;92.21
63691;BME280;49837;57.280;27.070;2023-03-20T01:45:21;100133.94;;;1.12;92.17
63691;BME280;49837;57.280;27.070;2023-03-20T01:47:23;100135.84;;;1.05;92.38
63691;BME280;49837;57.280;27.070;2023-03-20T01:48:23;100133.31;;;0.96;92.69
63691;BME280;49837;57.280;27.070;2023-03-20T01:50:30;100135.48;;;0.98;92.62
63691;BME280;49837;57.280;27.070;2023-03-20T01:51:29;100129.55;;;0.97;92.91
63691;BME280;49837;57.280;27.070;2023-03-20T01:52:28;100129.95;;;0.97;93.06
63691;BME280;49837;57.280;27.070;2023-03-20T01:53:29;100129.22;;;0.97;92.84
63691;BME280;49837;57.280;27.070;2023-03-20T01:54:34;100130.26;;;0.94;93.0
63691;BME280;49837;57.280;27.070;2023-03-20T01:55:34;100128.41;;;0.87;93.17
63691;BME280;49837;57.280;27.070;2023-03-20T01:57:35;100124.16;;;0.83;93.84
63691;BME280;49837;57.280;27.070;2023-03-20T01:58:37;100123.8;;;0.8;93.96
63691;BME280;49837;57.280;27.070;2023-03-20T01:59:50;100123.42;;;0.82;94.19
63691;BME280;49837;57.280;27.070;2023-03-20T02:00:40;100122.61;;;0.83;94.31
63691;BME280;49837;57.280;27.070;2023-03-20T02:01:42;100120.42;;;0.86;93.51
63691;BME280;49837;57.280;27.070;2023-03-20T02:02:43;100117.67;;;0.9;93.26
63691;BME280;49837;57.280;27.070;2023-03-20T02:03:43;100113.0;;;0.93;93.1
63691;BME280;49837;57.280;27.070;2023-03-20T02:04:44;100114.9;;;0.92;92.8
63691;BME280;49837;57.280;27.070;2023-03-20T02:05:43;100115.14;;;0.93;92.66
63691;BME280;49837;57.280;27.070;2023-03-20T02:06:44;100112.75;;;0.91;92.33
63691;BME280;49837;57.280;27.070;2023-03-20T02:07:48;100110.92;;;0.88;92.12
63691;BME280;49837;57.280;27.070;2023-03-20T02:08:49;100111.14;;;0.85;92.09
63691;BME280;49837;57.280;27.070;2023-03-20T02:09:48;100116.39;;;0.85;92.56
63691;BME280;49837;57.280;27.070;2023-03-20T02:10:48;100109.83;;;0.86;92.53
63691;BME280;49837;57.280;27.070;2023-03-20T02:11:48;100109.84;;;0.88;92.65
63691;BME280;49837;57.280;27.070;2023-03-20T02:12:48;100110.79;;;0.84;92.72
63691;BME280;49837;57.280;27.070;2023-03-20T02:13:52;100111.42;;;0.81;92.79
63691;BME280;49837;57.280;27.070;2023-03-20T02:14:53;100110.73;;;0.77;92.85
63691;BME280;49837;57.280;27.070;2023-03-20T02:16:54;100113.05;;;0.72;93.37
63691;BME280;49837;57.280;27.070;2023-03-20T02:17:54;100112.59;;;0.72;93.67
63691;BME280;49837;57.280;27.070;2023-03-20T02:18:55;100112.89;;;0.7;93.8
63691;BME280;49837;57.280;27.070;2023-03-20T02:30:36;100098.02;;;0.43;94.63
63691;BME280;49837;57.280;27.070;2023-03-20T02:47:13;100100.56;;;0.35;96.46
63691;BME280;49837;57.280;27.070;2023-03-20T02:55:39;100087.59;;;0.21;95.94
63691;BME280;49837;57.280;27.070;2023-03-20T02:58:48;100088.16;;;0.12;96.3
63691;BME280;49837;57.280;27.070;2023-03-20T03:00:50;100085.85;;;0.1;95.91
63691;BME280;49837;57.280;27.070;2023-03-20T03:01:52;100083.72;;;0.05;96.08
63691;BME280;49837;57.280;27.070;2023-03-20T03:02:57;100080.21;;;0.04;95.81
63691;BME280;49837;57.280;27.070;2023-03-20T03:03:55;100082.88;;;0.02;96.07
63691;BME280;49837;57.280;27.070;2023-03-20T03:04:59;100081.0;;;-0.06;96.06
63691;BME280;49837;57.280;27.070;2023-03-20T03:06:02;100083.81;;;-0.12;96.19
63691;BME280;49837;57.280;27.070;2023-03-20T03:07:04;100077.16;;;-0.12;96.56
63691;BME280;49837;57.280;27.070;2023-03-20T03:08:04;100078.56;;;-0.13;96.8
63691;BME280;49837;57.280;27.070;2023-03-20T03:09:13;100078.08;;;-0.18;96.93
63691;BME280;49837;57.280;27.070;2023-03-20T03:11:07;100076.23;;;-0.19;96.24
63691;BME280;49837;57.280;27.070;2023-03-20T03:13:16;100073.07;;;-0.17;96.24
63691;BME280;49837;57.280;27.070;2023-03-20T03:14:18;100072.91;;;-0.24;96.68
63691;BME280;49837;57.280;27.070;2023-03-20T03:16:23;100068.96;;;-0.37;97.29
63691;BME280;49837;57.280;27.070;2023-03-20T03:17:18;100074.4;;;-0.42;97.38
63691;BME280;49837;57.280;27.070;2023-03-20T03:18:19;100067.44;;;-0.42;97.25
63691;BME280;49837;57.280;27.070;2023-03-20T03:19:20;100066.38;;;-0.42;97.4
63691;BME280;49837;57.280;27.070;2023-03-20T03:20:25;100060.97;;;-0.36;97.73
63691;BME280;49837;57.280;27.070;2023-03-20T03:21:20;100064.6;;;-0.34;97.85
63691;BME280;49837;57.280;27.070;2023-03-20T03:22:20;100066.48;;;-0.32;97.98
63691;BME280;49837;57.280;27.070;2023-03-20T03:24:32;100064.05;;;-0.38;98.0
63691;BME280;49837;57.280;27.070;2023-03-20T03:25:29;100058.7;;;-0.4;98.07
63691;BME280;49837;57.280;27.070;2023-03-20T03:26:32;100060.3;;;-0.42;97.62
63691;BME280;49837;57.280;27.070;2023-03-20T03:27:37;100054.64;;;-0.43;97.04
63691;BME280;49837;57.280;27.070;2023-03-20T03:28:40;100055.83;;;-0.46;97.18
63691;BME280;49837;57.280;27.070;2023-03-20T03:29:35;100054.72;;;-0.49;97.35
63691;BME280;49837;57.280;27.070;2023-03-20T03:30:37;100051.02;;;-0.5;97.46
63691;BME280;49837;57.280;27.070;2023-03-20T03:31:36;100047.06;;;-0.53;97.52
63691;BME280;49837;57.280;27.070;2023-03-20T03:32:49;100044.83;;;-0.53;97.77
63691;BME280;49837;57.280;27.070;2023-03-20T03:33:40;100042.68;;;-0.56;97.96
63691;BME280;49837;57.280;27.070;2023-03-20T03:34:40;100038.63;;;-0.58;98.19
63691;BME280;49837;57.280;27.070;2023-03-20T03:35:40;100042.23;;;-0.64;98.34
63691;BME280;49837;57.280;27.070;2023-03-20T03:39:51;100036.62;;;-0.91;98.69
63691;BME280;49837;57.280;27.070;2023-03-20T03:42:08;100031.91;;;-0.88;98.9
63691;BME280;49837;57.280;27.070;2023-03-20T03:45:06;100028.19;;;-0.85;98.85
63691;BME280;49837;57.280;27.070;2023-03-20T03:46:05;100027.09;;;-0.86;98.89
63691;BME280;49837;57.280;27.070;2023-03-20T03:49:09;100027.19;;;-0.97;99.06
63691;BME280;49837;57.280;27.070;2023-03-20T03:51:12;100028.59;;;-0.92;99.2
63691;BME280;49837;57.280;27.070;2023-03-20T03:52:18;100026.34;;;-0.89;99.06
63691;BME280;49837;57.280;27.070;2023-03-20T03:53:12;100026.95;;;-0.91;99.2
63691;BME280;49837;57.280;27.070;2023-03-20T03:54:19;100027.14;;;-0.9;99.45
63691;BME280;49837;57.280;27.070;2023-03-20T03:55:18;100028.69;;;-0.79;99.61
63691;BME280;49837;57.280;27.070;2023-03-20T03:56:19;100027.53;;;-0.74;99.56
63691;BME280;49837;57.280;27.070;2023-03-20T03:57:23;100025.68;;;-0.7;99.64
63691;BME280;49837;57.280;27.070;2023-03-20T03:58:29;100025.3;;;-0.68;99.63
63691;BME280;49837;57.280;27.070;2023-03-20T03:59:32;100020.5;;;-0.67;99.59
63691;BME280;49837;57.280;27.070;2023-03-20T04:00:27;100024.12;;;-0.65;99.44
63691;BME280;49837;57.280;27.070;2023-03-20T04:01:27;100024.34;;;-0.67;99.4
63691;BME280;49837;57.280;27.070;2023-03-20T04:02:28;100022.07;;;-0.72;99.4
63691;BME280;49837;57.280;27.070;2023-03-20T04:03:32;100026.45;;;-0.75;99.29
63691;BME280;49837;57.280;27.070;2023-03-20T04:04:33;100023.47;;;-0.77;99.34
63691;BME280;49837;57.280;27.070;2023-03-20T04:05:35;100023.78;;;-0.78;99.44
63691;BME280;49837;57.280;27.070;2023-03-20T04:06:34;100024.09;;;-0.79;99.6
63691;BME280;49837;57.280;27.070;2023-03-20T04:07:34;100021.9;;;-0.9;99.65
63691;BME280;49837;57.280;27.070;2023-03-20T04:08:35;100024.67;;;-0.96;99.77
63691;BME280;49837;57.280;27.070;2023-03-20T04:09:35;100023.09;;;-0.98;99.85
63691;BME280;49837;57.280;27.070;2023-03-20T04:10:35;100022.4;;;-0.95;99.85
63691;BME280;49837;57.280;27.070;2023-03-20T04:11:36;100024.06;;;-0.92;99.54
63691;BME280;49837;57.280;27.070;2023-03-20T04:12:38;100021.84;;;-0.94;99.11
63691;BME280;49837;57.280;27.070;2023-03-20T04:13:36;100019.48;;;-0.93;99.1
63691;BME280;49837;57.280;27.070;2023-03-20T04:14:37;100019.16;;;-0.91;99.07
63691;BME280;49837;57.280;27.070;2023-03-20T04:15:37;100016.5;;;-0.9;99.08
63691;BME280;49837;57.280;27.070;2023-03-20T04:16:37;100013.1;;;-0.86;99.13
63691;BME280;49837;57.280;27.070;2023-03-20T04:17:38;100015.83;;;-0.86;99.31
63691;BME280;49837;57.280;27.070;2023-03-20T04:18:38;100009.37;;;-0.89;99.36
63691;BME280;49837;57.280;27.070;2023-03-20T04:19:38;100006.7;;;-0.99;99.37
63691;BME280;49837;57.280;27.070;2023-03-20T04:20:39;100008.8;;;-1.06;99.43
63691;BME280;49837;57.280;27.070;2023-03-20T04:21:39;100010.84;;;-1.07;99.63
63691;BME280;49837;57.280;27.070;2023-03-20T04:22:39;100005.24;;;-1.08;99.9
63691;BME280;49837;57.280;27.070;2023-03-20T04:23:40;100004.73;;;-1.06;100.0
63691;BME280;49837;57.280;27.070;2023-03-20T04:24:40;100008.03;;;-1.03;99.91
63691;BME280;49837;57.280;27.070;2023-03-20T04:25:40;100009.23;;;-1.03;99.74
63691;BME280;49837;57.280;27.070;2023-03-20T04:26:41;100008.12;;;-1.09;99.73
63691;BME280;49837;57.280;27.070;2023-03-20T04:27:41;100012.45;;;-1.03;99.75
63691;BME280;49837;57.280;27.070;2023-03-20T04:28:42;100014.68;;;-0.95;99.85
63691;BME280;49837;57.280;27.070;2023-03-20T04:29:42;100017.12;;;-0.92;100.0
63691;BME280;49837;57.280;27.070;2023-03-20T04:30:42;100019.89;;;-0.81;100.0
63691;BME280;49837;57.280;27.070;2023-03-20T04:31:42;100020.47;;;-0.75;100.0
63691;BME280;49837;57.280;27.070;2023-03-20T04:32:43;100022.95;;;-0.73;99.73
63691;BME280;49837;57.280;27.070;2023-03-20T04:33:43;100027.61;;;-0.69;99.45
63691;BME280;49837;57.280;27.070;2023-03-20T04:34:43;100030.03;;;-0.64;99.24
63691;BME280;49837;57.280;27.070;2023-03-20T04:35:43;100031.77;;;-0.63;99.08
63691;BME280;49837;57.280;27.070;2023-03-20T04:36:44;100028.42;;;-0.62;99.0
63691;BME280;49837;57.280;27.070;2023-03-20T04:37:44;100028.77;;;-0.61;98.88
63691;BME280;49837;57.280;27.070;2023-03-20T04:38:44;100030.33;;;-0.6;98.76
63691;BME280;49837;57.280;27.070;2023-03-20T04:39:45;100025.72;;;-0.56;98.67
63691;BME280;49837;57.280;27.070;2023-03-20T04:40:46;100019.82;;;-0.56;98.57
63691;BME280;49837;57.280;27.070;2023-03-20T04:41:45;100021.76;;;-0.58;98.79
63691;BME280;49837;57.280;27.070;2023-03-20T04:42:46;100018.66;;;-0.57;99.1
63691;BME280;49837;57.280;27.070;2023-03-20T04:43:46;100018.62;;;-0.54;99.5
63691;BME280;49837;57.280;27.070;2023-03-20T04:44:47;100017.07;;;-0.48;99.83
63691;BME280;49837;57.280;27.070;2023-03-20T04:45:47;100014.2;;;-0.4;99.8
63691;BME280;49837;57.280;27.070;2023-03-20T04:46:47;100006.81;;;-0.4;99.69
63691;BME280;49837;57.280;27.070;2023-03-20T04:47:47;100005.36;;;-0.45;99.74
63691;BME280;49837;57.280;27.070;2023-03-20T04:48:48;99998.6;;;-0.49;99.72
63691;BME280;49837;57.280;27.070;2023-03-20T04:49:48;99998.48;;;-0.52;99.79
63691;BME280;49837;57.280;27.070;2023-03-20T04:50:48;99995.05;;;-0.52;99.83
63691;BME280;49837;57.280;27.070;2023-03-20T04:51:49;99993.08;;;-0.51;99.86
63691;BME280;49837;57.280;27.070;2023-03-20T04:52:49;99989.62;;;-0.52;99.96
63691;BME280;49837;57.280;27.070;2023-03-20T04:53:49;99985.38;;;-0.51;100.0
63691;BME280;49837;57.280;27.070;2023-03-20T04:54:50;99993.11;;;-0.42;99.84
63691;BME280;49837;57.280;27.070;2023-03-20T04:55:50;99991.38;;;-0.31;99.61
63691;BME280;49837;57.280;27.070;2023-03-20T04:56:50;99992.06;;;-0.19;99.13
63691;BME280;49837;57.280;27.070;2023-03-20T04:57:51;99991.14;;;-0.15;98.56
63691;BME280;49837;57.280;27.070;2023-03-20T04:58:51;99995.78;;;-0.08;98.09
63691;BME280;49837;57.280;27.070;2023-03-20T04:59:51;99996.42;;;-0.03;97.65
63691;BME280;49837;57.280;27.070;2023-03-20T05:00:52;99995.89;;;-0.07;97.37
63691;BME280;49837;57.280;27.070;2023-03-20T05:01:52;99992.03;;;-0.05;97.26
63691;BME280;49837;57.280;27.070;2023-03-20T05:02:52;99991.94;;;-0.01;97.13
63691;BME280;49837;57.280;27.070;2023-03-20T05:03:53;99993.8;;;0.01;97.36
63691;BME280;49837;57.280;27.070;2023-03-20T05:04:53;99996.89;;;0.03;97.34
63691;BME280;49837;57.280;27.070;2023-03-20T05:05:53;99992.89;;;0.07;97.2
63691;BME280;49837;57.280;27.070;2023-03-20T05:06:54;99992.35;;;0.1;97.17
63691;BME280;49837;57.280;27.070;2023-03-20T05:07:54;99993.34;;;0.11;96.99
63691;BME280;49837;57.280;27.070;2023-03-20T05:08:55;99998.09;;;0.12;97.06
63691;BME280;49837;57.280;27.070;2023-03-20T05:09:55;99996.98;;;0.14;97.14
63691;BME280;49837;57.280;27.070;2023-03-20T05:10:55;99996.27;;;0.17;96.97
63691;BME280;49837;57.280;27.070;2023-03-20T05:11:55;99996.89;;;0.2;96.88
63691;BME280;49837;57.280;27.070;2023-03-20T05:12:56;100000.84;;;0.24;96.7
63691;BME280;49837;57.280;27.070;2023-03-20T05:13:56;99996.39;;;0.22;96.64
63691;BME280;49837;57.280;27.070;2023-03-20T05:14:58;99997.8;;;0.21;96.71
63691;BME280;49837;57.280;27.070;2023-03-20T05:15:57;99994.48;;;0.26;96.83
63691;BME280;49837;57.280;27.070;2023-03-20T05:16:57;99996.27;;;0.26;96.89
63691;BME280;49837;57.280;27.070;2023-03-20T05:17:57;99994.14;;;0.26;97.01
63691;BME280;49837;57.280;27.070;2023-03-20T05:18:58;99995.06;;;0.29;97.02
63691;BME280;49837;57.280;27.070;2023-03-20T05:19:58;99991.0;;;0.31;96.85
63691;BME280;49837;57.280;27.070;2023-03-20T05:20:58;99991.67;;;0.35;96.76
63691;BME280;49837;57.280;27.070;2023-03-20T05:21:59;99998.42;;;0.38;96.54
63691;BME280;49837;57.280;27.070;2023-03-20T05:22:59;99996.38;;;0.38;96.32
63691;BME280;49837;57.280;27.070;2023-03-20T05:23:59;99992.82;;;0.43;96.24
63691;BME280;49837;57.280;27.070;2023-03-20T05:25:00;99992.92;;;0.48;96.03
63691;BME280;49837;57.280;27.070;2023-03-20T05:26:00;99995.72;;;0.48;95.93
63691;BME280;49837;57.280;27.070;2023-03-20T05:27:00;99999.89;;;0.54;95.6
63691;BME280;49837;57.280;27.070;2023-03-20T05:28:01;100001.02;;;0.52;95.49
63691;BME280;49837;57.280;27.070;2023-03-20T05:29:01;100003.09;;;0.57;95.45
63691;BME280;49837;57.280;27.070;2023-03-20T05:30:01;99998.67;;;0.54;95.36
63691;BME280;49837;57.280;27.070;2023-03-20T05:31:02;99999.0;;;0.58;95.33
63691;BME280;49837;57.280;27.070;2023-03-20T05:32:02;100001.2;;;0.64;95.15
63691;BME280;49837;57.280;27.070;2023-03-20T05:33:03;99998.84;;;0.67;94.98
63691;BME280;49837;57.280;27.070;2023-03-20T05:34:03;100005.02;;;0.8;94.78
63691;BME280;49837;57.280;27.070;2023-03-20T05:35:03;100000.55;;;0.78;94.6
63691;BME280;49837;57.280;27.070;2023-03-20T05:36:04;99998.41;;;0.65;94.92
63691;BME280;49837;57.280;27.070;2023-03-20T05:37:04;99997.25;;;0.63;95.41
63691;BME280;49837;57.280;27.070;2023-03-20T05:38:04;99994.78;;;0.62;95.62
63691;BME280;49837;57.280;27.070;2023-03-20T05:39:04;99997.53;;;0.66;95.63
63691;BME280;49837;57.280;27.070;2023-03-20T05:40:11;100000.88;;;0.65;95.56
63691;BME280;49837;57.280;27.070;2023-03-20T05:41:08;99996.41;;;0.73;95.41
63691;BME280;49837;57.280;27.070;2023-03-20T05:42:09;99998.83;;;0.75;95.24
63691;BME280;49837;57.280;27.070;2023-03-20T05:43:09;99997.7;;;0.83;94.95
63691;BME280;49837;57.280;27.070;2023-03-20T05:44:10;99998.03;;;0.92;94.72
63691;BME280;49837;57.280;27.070;2023-03-20T05:45:10;99997.38;;;1.05;94.55
63691;BME280;49837;57.280;27.070;2023-03-20T05:46:10;99993.2;;;1.25;94.22
63691;BME280;49837;57.280;27.070;2023-03-20T05:47:11;99993.52;;;1.32;93.67
63691;BME280;49837;57.280;27.070;2023-03-20T05:48:11;99989.98;;;1.35;93.37
63691;BME280;49837;57.280;27.070;2023-03-20T05:49:11;99992.11;;;1.48;93.26
63691;BME280;49837;57.280;27.070;2023-03-20T05:50:12;99991.33;;;1.61;92.98
63691;BME280;49837;57.280;27.070;2023-03-20T05:51:12;99995.2;;;1.66;92.34
63691;BME280;49837;57.280;27.070;2023-03-20T05:52:12;99988.8;;;1.67;91.74
63691;BME280;49837;57.280;27.070;2023-03-20T05:53:13;99989.15;;;1.52;91.48
63691;BME280;49837;57.280;27.070;2023-03-20T05:54:13;99989.87;;;1.66;92.06
63691;BME280;49837;57.280;27.070;2023-03-20T05:55:14;99991.25;;;1.66;91.42
63691;BME280;49837;57.280;27.070;2023-03-20T05:56:14;99989.39;;;1.77;91.65
63691;BME280;49837;57.280;27.070;2023-03-20T05:57:14;99986.98;;;1.91;91.23
63691;BME280;49837;57.280;27.070;2023-03-20T05:58:16;99987.09;;;2.1;91.32
63691;BME280;49837;57.280;27.070;2023-03-20T05:59:15;99982.77;;;2.25;90.94
63691;BME280;49837;57.280;27.070;2023-03-20T06:00:16;99985.31;;;2.34;90.66
63691;BME280;49837;57.280;27.070;2023-03-20T06:01:15;99984.32;;;2.33;89.51
63691;BME280;49837;57.280;27.070;2023-03-20T06:02:16;99984.11;;;2.43;89.91
63691;BME280;49837;57.280;27.070;2023-03-20T06:03:16;99981.28;;;2.47;89.28
63691;BME280;49837;57.280;27.070;2023-03-20T06:04:16;99975.61;;;2.45;89.05
63691;BME280;49837;57.280;27.070;2023-03-20T06:05:17;99978.33;;;2.54;89.36
63691;BME280;49837;57.280;27.070;2023-03-20T06:06:17;99980.05;;;2.64;89.45
63691;BME280;49837;57.280;27.070;2023-03-20T06:07:17;99978.66;;;2.73;89.31
63691;BME280;49837;57.280;27.070;2023-03-20T06:08:18;99981.53;;;2.81;89.01
63691;BME280;49837;57.280;27.070;2023-03-20T06:09:19;99982.67;;;2.79;88.44
63691;BME280;49837;57.280;27.070;2023-03-20T06:10:19;99984.34;;;2.73;88.55
63691;BME280;49837;57.280;27.070;2023-03-20T06:11:22;99983.02;;;2.75;88.6
63691;BME280;49837;57.280;27.070;2023-03-20T06:12:19;99986.8;;;2.76;88.71
63691;BME280;49837;57.280;27.070;2023-03-20T06:13:20;99980.36;;;2.86;88.59
63691;BME280;49837;57.280;27.070;2023-03-20T06:14:20;99983.0;;;2.97;88.83
63691;BME280;49837;57.280;27.070;2023-03-20T06:15:21;99979.02;;;3.08;88.57
63691;BME280;49837;57.280;27.070;2023-03-20T06:16:21;99979.16;;;3.17;88.22
63691;BME280;49837;57.280;27.070;2023-03-20T06:17:21;99977.2;;;3.33;87.77
63691;BME280;49837;57.280;27.070;2023-03-20T06:18:22;99977.07;;;3.5;87.46